KTIW/TIW METAR and TAF weather

Enter ICAO airport designator
Station Type Date Time Source
KTIW METAR 2019/12/07 07:31 UTC NOAA

KTIW 070731Z AUTO 28004KT 3SM -RA BR SCT002 OVC046 08/08 A2979 RMK AO2 P0001 T00780078


Station Type Date Time Source
KTIW Decoded METAR 2019/12/07 07:31 UTC NOAA

Tacoma, Tacoma Narrows Airport, WA, United States (KTIW) 47-16-03N 122-34-34W 96M
Dec 07, 2019 - 02:31 AM EST / 2019.12.07 0731 UTC
Wind: from the W (280 degrees) at 5 MPH (4 KT):0
Visibility: 3 mile(s):0
Sky conditions: overcast
Weather: light rain; mist
Precipitation last hour: 0.01 inches
Temperature: 46.0 F (7.8 C)
Dew Point: 46.0 F (7.8 C)
Relative Humidity: 100%
Pressure (altimeter): 29.79 in. Hg (1008 hPa)
ob: KTIW 070731Z AUTO 28004KT 3SM -RA BR SCT002 OVC046 08/08 A2979 RMK AO2 P0001 T00780078
cycle: 7

Station Type Date Time Source
KTIW TAF UTC NOAA

Error!

Example: see airport list